Bloomfield, MT (59315)

6:13 AM MDT on August 27, 2014 (GMT -0600)
SE Bloomfield | Change Station
CLOSE
Current Station
Personal Weather Station
Location: Bloomfield, MT
Elevation: 2753 ft
Nearby Weather Stations

Elev 2753 ft 47.36 °N, 104.79 °W | Updated 1 second ago

Clear
Clear
52.8 °F
Feels Like 52.8 °F
N
0.0
Wind Variable Wind from SSE
Gusts 1.0 mph

Today
High -- | Low -- °F
--% Chance of Precip.
Yesterday
High -- | Low -- °F
Precip. -- in
6:12 AM 7:49 PM
Waxing Crescent, 3% visible
Pressure 30.07 in
Visibility 10.0 miles
Clouds Clear
Dew Point 52 °F
Humidity 96%
Rainfall 0.00 in
Snow Depth Not available.
UV 0 out of 12
Pollen 9.30 out of 12
Air Quality Not available.
Flu Activity Not available.
METAR KOLF 271153Z AUTO 08004KT 10SM CLR 09/08 A3008 RMK AO2 SLP183 T00940078 10133 20094 56001

More Conditions Fewer Conditions

Pressure 30.07 in
Visibility 10.0 miles
Clouds Clear
Dew Point 52 °F
Humidity 96%
Rainfall 0.00 in
Snow Depth Not available.
UV 0 out of 12
Pollen 9.30 out of 12
Air Quality Not available.
Flu Activity Not available.
METAR KOLF 271153Z AUTO 08004KT 10SM CLR 09/08 A3008 RMK AO2 SLP183 T00940078 10133 20094 56001

More Conditions Fewer Conditions

10-Day Weather Forecast

Almanac

Astronomy

Aug. 27, 2014 Rise Set
Actual Time 6:12 AM MDT 7:49 PM MDT
Civil Twilight 5:39 AM MDT 8:21 PM MDT
Nautical Twilight 5:00 AM MDT 9:00 PM MDT
Astronomical Twilight 4:17 AM MDT 9:43 PM MDT
Moon 8:21 AM MDT 8:30 PM MDT
Length of Visible Light 14h 41m
Length of Day
13h 37m
Tomorrow will be 3m 13s shorter.
Waxing Crescent, 3% of the Moon is Illuminated
Today
Waxing Crescent
Sep 2
First Quarter
Sep 8
Full
Sep 15
Last Quarter
Sep 24
New

Today's Extremes

State Highs State Lows

Community

WunderPhotos

Upload Photos

1,747,674 photos uploaded!

Nearby

Snow Depth

Station Depth Elevation
Crystal Lake 1 in 6050 ft
Daisy Peak 0 in 7600 ft
Cole Creek 1 in 7850 ft
Spur Park 0 in 8100 ft
Porcupine 1 in 6500 ft

Earthquake Activity

City Distance Mag. Time & Date
No recent earthquake activity has been reported nearby.
Minimum magnitude displayed is 2.5.

Coastal Water Temperatures

Place Temperature
No Stations Reporting

Nearby Weather Stations